Time;durP1;ratioP1;P1;durP2;ratioP2;P2;SDS_P1;SDS_P2;PMS_P1;PMS_P2;Temp;Humidity;BMP_temperature;BMP_pressure;BME280_temperature;BME280_humidity;BME280_pressure;Samples;Min_cycle;Max_cycle;Signal;HPM_P1;HPM_P2
2021/12/18 00:01:26;;;;;;;7.80;3.90;;;9.60;99.90;;;;;;4986018;28;20363;-74
2021/12/18 00:03:51;;;;;;;9.93;4.20;;;9.60;99.90;;;;;;5019665;28;20124;-74
2021/12/18 00:06:17;;;;;;;8.13;3.97;;;9.50;99.90;;;;;;5019725;28;20026;-74
2021/12/18 00:08:44;;;;;;;8.10;3.57;;;9.60;99.90;;;;;;5002118;28;20034;-74
2021/12/18 00:11:10;;;;;;;9.13;4.07;;;9.60;99.90;;;;;;5019743;28;20030;-74
2021/12/18 00:13:36;;;;;;;8.80;3.83;;;9.60;99.90;;;;;;5019658;28;20030;-74
2021/12/18 00:16:02;;;;;;;8.37;4.10;;;9.60;99.90;;;;;;4985987;28;20045;-74
2021/12/18 00:18:28;;;;;;;9.23;4.20;;;9.60;99.90;;;;;;5002036;28;20492;-75
2021/12/18 00:20:53;;;;;;;7.73;3.43;;;9.60;99.90;;;;;;4985808;28;20029;-75
2021/12/18 00:23:19;;;;;;;8.50;4.50;;;9.60;99.90;;;;;;5002603;28;20113;-75
2021/12/18 00:25:45;;;;;;;8.63;4.30;;;9.70;99.90;;;;;;5019457;28;20060;-74
2021/12/18 00:28:12;;;;;;;7.20;3.40;;;9.70;99.90;;;;;;5019559;28;20050;-73
2021/12/18 00:30:38;;;;;;;8.63;3.90;;;9.70;99.90;;;;;;5019480;28;20104;-75
2021/12/18 00:33:05;;;;;;;8.67;3.53;;;9.70;99.90;;;;;;5001942;28;20052;-74
2021/12/18 00:35:33;;;;;;;9.17;3.73;;;9.70;99.90;;;;;;5019621;28;20030;-75
2021/12/18 00:38:00;;;;;;;10.90;4.67;;;9.70;99.90;;;;;;5001891;28;20028;-75
2021/12/18 00:40:30;;;;;;;9.17;3.53;;;9.70;99.90;;;;;;5019462;28;20051;-75
2021/12/18 00:43:13;;;;;;;7.57;3.73;;;9.70;99.90;;;;;;5001833;28;20410;-74
2021/12/18 00:45:39;;;;;;;9.25;4.28;;;9.70;99.90;;;;;;5019350;28;20545;-75
2021/12/18 00:48:05;;;;;;;10.87;4.00;;;9.70;99.90;;;;;;5001886;28;20029;-75
2021/12/18 00:50:30;;;;;;;9.83;4.00;;;9.60;99.90;;;;;;5019508;28;20100;-75
2021/12/18 00:52:57;;;;;;;9.13;4.00;;;9.60;99.90;;;;;;5019442;28;20034;-75
2021/12/18 00:55:23;;;;;;;9.60;4.63;;;9.60;99.90;;;;;;5002031;28;20045;-74
2021/12/18 00:57:50;;;;;;;9.03;4.23;;;9.50;99.90;;;;;;5001912;28;20034;-74
2021/12/18 01:00:23;;;;;;;8.13;3.97;;;9.50;99.90;;;;;;4985449;28;20048;-74
2021/12/18 01:02:57;;;;;;;9.20;4.23;;;9.50;99.90;;;;;;5016136;28;20034;-74
2021/12/18 01:05:22;;;;;;;10.15;3.75;;;9.60;99.90;;;;;;4998848;28;20034;-74
2021/12/18 01:07:48;;;;;;;7.40;3.33;;;9.60;99.90;;;;;;5016169;28;20165;-74
2021/12/18 01:11:22;;;;;;;8.63;4.00;;;9.60;99.90;;;;;;4998580;28;20026;-74
2021/12/18 01:13:02;;;;;;;8.40;3.90;;;9.60;99.90;;;;;;5011891;28;20114;-75
2021/12/18 01:15:35;;;;;;;7.70;3.53;;;9.60;99.90;;;;;;5014387;28;20502;-74
2021/12/18 01:23:30;;;;;;;9.73;3.43;;;9.60;99.90;;;;;;5016711;28;20403;-75
2021/12/18 01:25:57;;;;;;;7.80;3.57;;;9.60;99.90;;;;;;5015666;28;20117;-75
2021/12/18 01:28:23;;;;;;;8.20;3.90;;;9.60;99.90;;;;;;5014791;28;20049;-74
2021/12/18 01:30:49;;;;;;;6.70;2.77;;;9.60;99.90;;;;;;4998055;28;20079;-75
2021/12/18 01:33:15;;;;;;;8.40;3.80;;;9.60;99.90;;;;;;4998044;28;20124;-74
2021/12/18 01:35:42;;;;;;;8.00;3.37;;;9.60;99.90;;;;;;4998321;28;20041;-74
2021/12/18 01:38:09;;;;;;;8.03;3.33;;;9.60;99.90;;;;;;5015489;28;20482;-74
2021/12/18 01:40:35;;;;;;;7.90;4.03;;;9.60;99.90;;;;;;4998126;28;20389;-74
2021/12/18 01:53:26;;;;;;;8.07;3.42;;;9.60;99.90;;;;;;5000880;28;20060;-74
2021/12/18 01:55:52;;;;;;;8.50;3.57;;;9.60;99.90;;;;;;5015244;28;20479;-74
2021/12/18 01:58:22;;;;;;;7.77;3.70;;;9.60;99.90;;;;;;5015034;28;20385;-74
2021/12/18 02:00:52;;;;;;;7.60;3.23;;;9.50;99.90;;;;;;4997567;28;20088;-74
2021/12/18 02:03:19;;;;;;;8.87;4.30;;;9.50;99.90;;;;;;4997607;28;20125;-74
2021/12/18 02:05:48;;;;;;;8.43;4.00;;;9.60;99.90;;;;;;4997783;28;20030;-73
2021/12/18 02:08:20;;;;;;;10.93;3.63;;;9.60;99.90;;;;;;5015026;28;20049;-74
2021/12/18 02:10:51;;;;;;;8.10;3.73;;;9.60;99.90;;;;;;5014967;28;20029;-74
2021/12/18 02:21:27;;;;;;;6.93;3.20;;;9.70;99.90;;;;;;5015185;28;20056;-74
2021/12/18 02:23:53;;;;;;;10.90;4.87;;;9.60;99.90;;;;;;4981938;28;20026;-75
2021/12/18 02:26:20;;;;;;;11.63;5.23;;;9.60;99.90;;;;;;5013196;28;20046;-75
2021/12/18 02:28:48;;;;;;;13.17;6.37;;;9.70;99.90;;;;;;5014650;28;20107;-74
2021/12/18 02:31:15;;;;;;;12.30;6.20;;;9.60;99.90;;;;;;4996963;28;20133;-75
2021/12/18 02:33:41;;;;;;;16.47;8.23;;;9.60;99.90;;;;;;4980843;28;20481;-75
2021/12/18 02:36:09;;;;;;;15.43;7.90;;;9.60;99.90;;;;;;5013381;28;20048;-75
2021/12/18 02:41:45;;;;;;;13.90;6.67;;;9.70;99.90;;;;;;5014709;28;20030;-75
2021/12/18 02:44:12;;;;;;;11.37;5.73;;;9.70;99.90;;;;;;5001027;28;20030;-75
2021/12/18 02:46:40;;;;;;;10.47;5.23;;;9.70;99.90;;;;;;4996952;28;20385;-74
2021/12/18 02:49:09;;;;;;;10.90;5.47;;;9.70;99.90;;;;;;4996510;28;20525;-75
2021/12/18 02:51:35;;;;;;;11.73;5.30;;;9.80;99.90;;;;;;5014478;28;20062;-75
2021/12/18 02:54:00;;;;;;;11.70;5.27;;;9.70;99.90;;;;;;5013061;28;20049;-75
2021/12/18 02:56:26;;;;;;;10.87;4.97;;;9.70;99.90;;;;;;4996655;28;20504;-75
2021/12/18 02:58:57;;;;;;;10.63;5.17;;;9.70;99.90;;;;;;5014067;28;20080;-75
2021/12/18 03:01:25;;;;;;;9.77;4.80;;;9.70;99.90;;;;;;5013994;28;20054;-75
2021/12/18 03:03:56;;;;;;;10.77;5.10;;;9.70;99.90;;;;;;5014121;28;20037;-74
2021/12/18 03:20:32;;;;;;;12.07;5.57;;;9.60;99.90;;;;;;4999400;28;20037;-75
2021/12/18 03:25:21;;;;;;;12.82;5.97;;;9.60;99.90;;;;;;5014715;28;20129;-75
2021/12/18 03:27:47;;;;;;;12.60;5.67;;;9.60;99.90;;;;;;4997246;28;20104;-75
2021/12/18 03:30:13;;;;;;;12.73;6.17;;;9.60;99.90;;;;;;5012595;28;20022;-75
2021/12/18 03:32:40;;;;;;;11.63;5.77;;;9.60;99.90;;;;;;5013659;28;20368;-74
2021/12/18 03:35:06;;;;;;;12.40;5.67;;;9.60;99.90;;;;;;4963733;28;20536;-74
2021/12/18 03:37:34;;;;;;;12.07;5.93;;;9.60;99.90;;;;;;5012349;28;20057;-74
2021/12/18 03:40:00;;;;;;;12.63;5.30;;;9.60;99.90;;;;;;4996306;28;20108;-75
2021/12/18 03:42:26;;;;;;;11.10;5.40;;;9.60;99.90;;;;;;5012202;28;20026;-74
2021/12/18 03:44:51;;;;;;;12.87;6.40;;;9.60;99.90;;;;;;4979596;28;20120;-74
2021/12/18 03:47:17;;;;;;;10.63;5.17;;;9.50;99.90;;;;;;4979924;28;20030;-74
2021/12/18 03:49:43;;;;;;;10.43;4.77;;;9.50;99.90;;;;;;5013308;28;20049;-74
2021/12/18 03:52:08;;;;;;;11.30;5.07;;;9.50;99.90;;;;;;5013353;28;20055;-74
2021/12/18 03:54:34;;;;;;;11.50;5.50;;;9.50;99.90;;;;;;5013295;28;20379;-75
2021/12/18 03:57:00;;;;;;;10.17;4.83;;;9.50;99.90;;;;;;5013637;28;20045;-75
2021/12/18 03:59:26;;;;;;;11.37;4.90;;;9.50;99.90;;;;;;5013303;28;20041;-75
2021/12/18 04:01:51;;;;;;;11.20;4.57;;;9.50;99.90;;;;;;4995663;28;20057;-75
2021/12/18 04:04:17;;;;;;;10.07;4.53;;;9.50;99.90;;;;;;4995737;28;20034;-75
2021/12/18 04:06:43;;;;;;;11.17;4.93;;;9.50;99.90;;;;;;4979794;28;20030;-75
2021/12/18 04:09:11;;;;;;;12.53;5.63;;;9.40;99.90;;;;;;4995841;28;20045;-75
2021/12/18 04:11:38;;;;;;;9.80;4.73;;;9.50;99.90;;;;;;5013140;28;20033;-75
2021/12/18 04:14:04;;;;;;;9.40;4.90;;;9.40;99.90;;;;;;5013263;28;20105;-73
2021/12/18 04:16:30;;;;;;;10.10;4.77;;;9.40;99.90;;;;;;5013211;28;20049;-73
2021/12/18 04:18:56;;;;;;;11.83;5.07;;;9.40;99.90;;;;;;4995476;28;20084;-74
2021/12/18 04:21:21;;;;;;;10.03;4.70;;;9.40;99.90;;;;;;5011749;28;20010;-74
2021/12/18 04:23:47;;;;;;;9.60;4.20;;;9.40;99.90;;;;;;5013005;28;20466;-74
2021/12/18 04:26:32;;;;;;;11.07;4.90;;;9.30;99.90;;;;;;4995213;28;20054;-74
2021/12/18 04:28:58;;;;;;;11.10;4.90;;;9.40;99.90;;;;;;5013100;28;20037;-74
2021/12/18 04:31:25;;;;;;;10.50;5.17;;;9.30;99.90;;;;;;5011749;28;20151;-74
2021/12/18 04:33:50;;;;;;;10.47;4.30;;;9.20;99.90;;;;;;5013007;28;20484;-74
2021/12/18 04:36:16;;;;;;;12.47;5.97;;;9.30;99.90;;;;;;4995648;28;20038;-74
2021/12/18 04:38:42;;;;;;;10.10;4.23;;;9.20;99.90;;;;;;5016596;28;20391;-74
2021/12/18 04:41:10;;;;;;;10.63;4.73;;;9.30;99.90;;;;;;4982774;28;20436;-74
2021/12/18 04:43:35;;;;;;;15.73;5.53;;;9.30;99.90;;;;;;4999242;28;20030;-75
2021/12/18 04:46:01;;;;;;;13.63;5.77;;;9.20;99.90;;;;;;5016344;28;20038;-75
2021/12/18 04:48:27;;;;;;;10.40;4.80;;;9.30;99.90;;;;;;5016736;28;20026;-75
2021/12/18 04:50:53;;;;;;;11.13;5.23;;;9.20;99.90;;;;;;5016361;28;20037;-75
2021/12/18 04:53:19;;;;;;;12.07;5.73;;;9.20;99.90;;;;;;4998851;28;20034;-75
2021/12/18 04:55:45;;;;;;;13.40;6.13;;;9.30;99.90;;;;;;5016248;28;20140;-75
2021/12/18 04:58:10;;;;;;;11.77;5.20;;;9.30;99.90;;;;;;5015149;28;20041;-75
2021/12/18 05:00:45;;;;;;;10.47;4.70;;;9.30;99.90;;;;;;5016244;28;20034;-74
2021/12/18 05:03:16;;;;;;;13.10;5.97;;;9.20;99.90;;;;;;5016268;28;20040;-74
2021/12/18 05:05:42;;;;;;;13.97;5.47;;;9.30;99.90;;;;;;5015096;28;20060;-74
2021/12/18 05:08:07;;;;;;;11.03;4.77;;;9.30;99.90;;;;;;5016149;28;20471;-74
2021/12/18 05:10:33;;;;;;;14.00;6.03;;;9.30;99.90;;;;;;4998618;28;20386;-74
2021/12/18 05:12:59;;;;;;;13.37;5.73;;;9.30;99.90;;;;;;4998332;28;20033;-74
2021/12/18 05:15:25;;;;;;;11.50;4.47;;;9.30;99.90;;;;;;4998582;28;20395;-74
2021/12/18 05:17:50;;;;;;;13.47;4.70;;;9.40;99.90;;;;;;5015261;28;20080;-74
2021/12/18 05:20:16;;;;;;;11.03;4.43;;;9.30;99.90;;;;;;4997314;28;20121;-74
2021/12/18 05:22:43;;;;;;;10.93;5.20;;;9.30;99.90;;;;;;4980320;28;20129;-74
2021/12/18 05:25:09;;;;;;;12.40;5.00;;;9.40;99.90;;;;;;5015551;28;20482;-74
2021/12/18 05:27:36;;;;;;;11.83;5.17;;;9.40;99.90;;;;;;5015825;28;20050;-74
2021/12/18 05:30:07;;;;;;;12.50;4.87;;;9.30;99.90;;;;;;4982094;28;20030;-74
2021/12/18 05:32:33;;;;;;;10.07;4.23;;;9.30;99.90;;;;;;4997347;28;20488;-74
2021/12/18 05:34:58;;;;;;;8.63;3.03;;;9.30;99.90;;;;;;4998133;28;20077;-74
2021/12/18 05:39:50;;;;;;;8.77;3.10;;;9.20;99.90;;;;;;5015560;28;20399;-73
2021/12/18 05:42:16;;;;;;;8.17;3.17;;;9.10;99.90;;;;;;5015395;28;20127;-73
2021/12/18 05:44:42;;;;;;;8.37;3.13;;;9.20;99.90;;;;;;4997741;28;20030;-73
2021/12/18 05:47:08;;;;;;;9.23;3.37;;;9.20;99.90;;;;;;4997679;28;20196;-74
2021/12/18 05:49:33;;;;;;;6.70;2.63;;;9.20;99.90;;;;;;4997469;28;20120;-74
2021/12/18 05:51:59;;;;;;;6.37;2.57;;;9.20;99.90;;;;;;5015321;28;20037;-73
2021/12/18 05:54:25;;;;;;;6.43;2.30;;;9.10;99.90;;;;;;5015440;28;20034;-73
2021/12/18 05:56:51;;;;;;;8.23;2.90;;;9.10;99.90;;;;;;4981595;28;20037;-74
2021/12/18 05:59:17;;;;;;;5.93;2.17;;;9.10;99.90;;;;;;5015397;28;20068;-74
2021/12/18 06:01:42;;;;;;;7.37;2.30;;;9.00;99.90;;;;;;4997672;28;20506;-73
2021/12/18 06:04:08;;;;;;;4.70;1.90;;;9.00;99.90;;;;;;5015601;28;20483;-73
2021/12/18 06:06:34;;;;;;;7.20;2.20;;;9.10;99.90;;;;;;4981360;28;20026;-74
2021/12/18 06:08:59;;;;;;;5.60;2.10;;;9.00;99.90;;;;;;4985461;28;20038;-74
2021/12/18 06:11:28;;;;;;;3.83;1.60;;;9.00;99.90;;;;;;5013687;28;20030;-73
2021/12/18 06:13:54;;;;;;;5.40;1.77;;;9.00;99.90;;;;;;5014928;28;20136;-74
2021/12/18 06:16:21;;;;;;;5.10;1.77;;;9.00;99.90;;;;;;5014913;28;20046;-74
2021/12/18 06:18:50;;;;;;;5.87;1.83;;;9.00;99.90;;;;;;5013449;28;20049;-74
2021/12/18 06:21:17;;;;;;;6.50;1.90;;;9.00;99.90;;;;;;4997409;28;20029;-74
2021/12/18 06:23:45;;;;;;;6.17;2.07;;;9.10;99.90;;;;;;5011164;28;20073;-74
2021/12/18 06:26:11;;;;;;;4.60;1.47;;;9.00;99.90;;;;;;5030109;28;20056;-74
2021/12/18 06:28:37;;;;;;;5.73;1.77;;;8.90;99.90;;;;;;5013355;28;20124;-73
2021/12/18 06:31:03;;;;;;;4.80;1.47;;;8.90;99.90;;;;;;5016765;28;20469;-74
2021/12/18 06:33:29;;;;;;;6.60;2.10;;;8.90;99.90;;;;;;5028002;28;20037;-74
2021/12/18 06:35:56;;;;;;;3.70;1.50;;;8.90;99.90;;;;;;4999397;28;20033;-74
2021/12/18 06:38:22;;;;;;;5.03;1.47;;;9.00;99.90;;;;;;5011219;28;20029;-74
2021/12/18 06:40:48;;;;;;;5.10;1.40;;;8.90;99.90;;;;;;5032368;28;20037;-73
2021/12/18 06:43:13;;;;;;;5.77;1.70;;;8.90;99.90;;;;;;5014643;28;20121;-73
2021/12/18 06:45:39;;;;;;;3.33;1.07;;;8.90;99.90;;;;;;5016029;28;20120;-74
2021/12/18 06:48:05;;;;;;;3.93;1.23;;;9.00;99.90;;;;;;5033927;28;20057;-74
2021/12/18 06:50:32;;;;;;;3.40;1.07;;;8.90;99.90;;;;;;5016220;28;20453;-75
2021/12/18 06:52:57;;;;;;;3.87;1.40;;;8.80;99.90;;;;;;5015329;28;20048;-75
2021/12/18 06:55:23;;;;;;;4.97;1.70;;;8.80;99.90;;;;;;5033609;28;20465;-75
2021/12/18 06:57:49;;;;;;;2.93;1.00;;;8.70;99.90;;;;;;5010743;28;20124;-75
2021/12/18 07:00:17;;;;;;;3.53;1.00;;;8.80;99.90;;;;;;5024304;28;20041;-74
2021/12/18 07:02:42;;;;;;;2.93;0.90;;;8.80;99.90;;;;;;5025968;28;20033;-74
2021/12/18 07:05:09;;;;;;;2.83;0.90;;;8.70;99.90;;;;;;5006259;28;20026;-74
2021/12/18 07:07:35;;;;;;;2.90;0.83;;;8.70;99.90;;;;;;4996609;28;20034;-74
2021/12/18 07:10:03;;;;;;;1.87;0.70;;;8.70;99.90;;;;;;5013896;28;20037;-74
2021/12/18 07:12:28;;;;;;;2.10;0.70;;;8.70;99.90;;;;;;5013893;28;20022;-74
2021/12/18 07:14:54;;;;;;;3.47;0.97;;;8.60;99.90;;;;;;4980036;28;20112;-75
2021/12/18 07:17:20;;;;;;;2.37;0.83;;;8.60;99.90;;;;;;4987430;28;20041;-74
2021/12/18 07:19:45;;;;;;;2.87;0.70;;;8.60;99.90;;;;;;5006113;28;20112;-74
2021/12/18 07:22:11;;;;;;;2.33;0.60;;;8.60;99.90;;;;;;5013385;28;20060;-74
2021/12/18 07:24:36;;;;;;;2.40;0.80;;;8.60;99.90;;;;;;5016168;28;20597;-74
2021/12/18 07:27:02;;;;;;;2.53;0.60;;;8.50;99.90;;;;;;5033224;28;20148;-74
2021/12/18 07:29:28;;;;;;;5.33;1.20;;;8.50;99.90;;;;;;5033234;28;20026;-74
2021/12/18 07:31:54;;;;;;;2.80;0.70;;;8.40;99.90;;;;;;4999135;28;20119;-74
2021/12/18 07:34:19;;;;;;;5.57;1.07;;;8.40;99.90;;;;;;5033219;28;20029;-74
2021/12/18 07:36:45;;;;;;;2.53;0.70;;;8.40;99.90;;;;;;4999259;28;20021;-74
2021/12/18 07:39:11;;;;;;;2.80;0.97;;;8.40;99.90;;;;;;5015656;28;20021;-74
2021/12/18 07:41:38;;;;;;;2.80;0.73;;;8.30;99.90;;;;;;5027197;28;20033;-74
2021/12/18 07:44:06;;;;;;;3.00;0.70;;;8.30;99.90;;;;;;5015638;28;20393;-72
2021/12/18 07:46:36;;;;;;;2.10;0.67;;;8.30;99.90;;;;;;5014576;28;20430;-72
2021/12/18 07:49:03;;;;;;;2.67;0.70;;;8.30;99.90;;;;;;5032697;28;20029;-72
2021/12/18 07:51:29;;;;;;;3.03;0.70;;;8.30;99.90;;;;;;4998958;28;20029;-72
2021/12/18 07:53:55;;;;;;;2.23;0.70;;;8.30;99.90;;;;;;5032805;28;20056;-72
2021/12/18 07:56:21;;;;;;;2.20;0.73;;;8.30;99.90;;;;;;5015384;28;20602;-72
2021/12/18 07:58:46;;;;;;;2.23;0.60;;;8.30;99.90;;;;;;5015522;28;20064;-72
2021/12/18 08:01:12;;;;;;;2.10;0.70;;;8.20;99.90;;;;;;5015389;28;20038;-72
2021/12/18 08:03:38;;;;;;;3.30;0.67;;;8.30;99.90;;;;;;5015554;28;20393;-72
2021/12/18 08:06:04;;;;;;;3.17;0.77;;;8.30;99.90;;;;;;5015295;28;20064;-72
2021/12/18 08:08:30;;;;;;;2.57;0.67;;;8.30;99.90;;;;;;5032953;28;20033;-73
2021/12/18 08:10:55;;;;;;;2.53;0.70;;;8.30;99.90;;;;;;4998812;28;20392;-72
2021/12/18 08:13:21;;;;;;;3.00;0.60;;;8.20;99.90;;;;;;5036374;28;20087;-73
2021/12/18 08:15:47;;;;;;;2.03;0.60;;;8.30;99.90;;;;;;5036891;28;20108;-72
2021/12/18 08:18:13;;;;;;;2.20;0.43;;;8.30;99.90;;;;;;5036978;28;20440;-72
2021/12/18 08:20:38;;;;;;;1.80;0.50;;;8.30;99.90;;;;;;5036992;28;20397;-72
2021/12/18 08:23:05;;;;;;;1.50;0.50;;;8.30;99.90;;;;;;5036689;28;20033;-72
2021/12/18 08:25:32;;;;;;;1.90;0.50;;;8.30;99.90;;;;;;5036502;28;20096;-72
2021/12/18 08:27:59;;;;;;;1.90;0.43;;;8.30;99.90;;;;;;5036452;28;20057;-73
2021/12/18 08:30:26;;;;;;;1.90;0.60;;;8.30;99.90;;;;;;5018779;28;20025;-72
2021/12/18 08:32:52;;;;;;;2.43;0.60;;;8.30;99.90;;;;;;5002493;28;20079;-72
2021/12/18 08:35:18;;;;;;;1.77;0.50;;;8.30;99.90;;;;;;5036579;28;20033;-72
2021/12/18 08:37:44;;;;;;;2.17;0.80;;;8.30;99.90;;;;;;5036438;28;20029;-72
2021/12/18 08:40:10;;;;;;;1.63;0.60;;;8.30;99.90;;;;;;5036479;28;20076;-73
2021/12/18 08:42:36;;;;;;;2.27;0.60;;;8.30;99.90;;;;;;5036482;28;20033;-72
2021/12/18 08:45:03;;;;;;;2.10;0.60;;;8.30;99.90;;;;;;5036253;28;20044;-73
2021/12/18 08:47:29;;;;;;;1.80;0.50;;;8.30;99.90;;;;;;5018586;28;20033;-73
2021/12/18 08:49:54;;;;;;;2.10;0.60;;;8.30;99.90;;;;;;5036435;28;20025;-73
2021/12/18 08:52:21;;;;;;;1.67;0.70;;;8.30;99.90;;;;;;5002078;28;20025;-73
2021/12/18 08:54:47;;;;;;;2.17;0.60;;;8.30;99.90;;;;;;5018636;28;20033;-73
2021/12/18 08:57:14;;;;;;;2.10;0.60;;;8.40;99.90;;;;;;5035913;28;20030;-73
2021/12/18 08:59:41;;;;;;;2.13;0.60;;;8.40;99.90;;;;;;5035988;28;20478;-72
2021/12/18 09:02:08;;;;;;;1.13;0.50;;;8.40;99.90;;;;;;5035937;28;20029;-72
2021/12/18 09:04:35;;;;;;;0.90;0.30;;;8.50;99.90;;;;;;5002024;28;20037;-72
2021/12/18 09:07:00;;;;;;;1.10;0.33;;;8.40;99.90;;;;;;5001913;28;20363;-72
2021/12/18 09:09:26;;;;;;;0.70;0.27;;;8.40;99.90;;;;;;5018313;28;20048;-72
2021/12/18 09:11:52;;;;;;;1.00;0.30;;;8.40;99.90;;;;;;5001814;28;20113;-72
2021/12/18 09:14:18;;;;;;;0.47;0.20;;;8.50;99.90;;;;;;5018098;28;20022;-72
2021/12/18 09:16:44;;;;;;;0.63;0.20;;;8.50;99.90;;;;;;5035821;28;20025;-72
2021/12/18 09:19:09;;;;;;;0.97;0.20;;;8.50;99.90;;;;;;5035781;28;20064;-72
2021/12/18 09:21:35;;;;;;;1.03;0.30;;;8.60;99.90;;;;;;5001585;28;20412;-72
2021/12/18 09:24:01;;;;;;;2.10;0.40;;;8.50;99.90;;;;;;5016755;28;20042;-73
2021/12/18 09:26:27;;;;;;;0.73;0.23;;;8.60;99.90;;;;;;5005686;28;20044;-72
2021/12/18 09:28:53;;;;;;;0.67;0.33;;;8.60;99.90;;;;;;4981896;28;20084;-72
2021/12/18 09:31:18;;;;;;;1.63;0.30;;;8.80;99.90;;;;;;4981926;28;20033;-72
2021/12/18 09:33:44;;;;;;;0.33;0.17;;;8.70;99.90;;;;;;4981931;28;20386;-72
2021/12/18 09:36:10;;;;;;;0.97;0.37;;;8.70;99.90;;;;;;5015769;28;20145;-73
2021/12/18 09:38:35;;;;;;;0.37;0.13;;;8.80;99.90;;;;;;5015497;28;20030;-72
2021/12/18 09:41:03;;;;;;;0.57;0.20;;;8.70;99.90;;;;;;5015094;28;20502;-73
2021/12/18 09:43:29;;;;;;;1.63;0.30;;;8.80;99.90;;;;;;5015322;28;20034;-73
2021/12/18 09:46:11;;;;;;;0.50;0.20;;;8.90;99.90;;;;;;4997903;28;20413;-73
2021/12/18 09:48:38;;;;;;;0.43;0.20;;;9.00;99.90;;;;;;5014851;28;20026;-73
2021/12/18 09:51:08;;;;;;;0.63;0.20;;;9.00;99.90;;;;;;5014890;28;20022;-72
2021/12/18 09:53:35;;;;;;;0.57;0.20;;;9.00;99.90;;;;;;4981708;28;20053;-73
2021/12/18 09:56:01;;;;;;;0.90;0.30;;;9.10;99.90;;;;;;4981503;28;20036;-73
2021/12/18 09:58:27;;;;;;;0.90;0.30;;;9.10;99.90;;;;;;4997488;28;20025;-73
2021/12/18 10:00:54;;;;;;;0.40;0.20;;;9.10;99.90;;;;;;4997589;28;20385;-75
2021/12/18 10:03:19;;;;;;;0.47;0.20;;;9.10;99.90;;;;;;5014973;28;20056;-74
2021/12/18 10:05:45;;;;;;;0.50;0.20;;;9.00;99.80;;;;;;5015014;28;20486;-74
2021/12/18 10:08:19;;;;;;;0.87;0.30;;;8.90;99.70;;;;;;4981210;28;20470;-74
2021/12/18 10:11:08;;;;;;;0.47;0.20;;;8.90;99.60;;;;;;4997339;28;20032;-74
2021/12/18 10:13:52;;;;;;;1.03;0.30;;;8.90;99.50;;;;;;4997143;28;20065;-74
2021/12/18 10:16:18;;;;;;;0.40;0.25;;;8.80;99.50;;;;;;4997086;28;20390;-74
2021/12/18 10:18:43;;;;;;;1.97;0.40;;;8.80;99.50;;;;;;4997226;28;20034;-74
2021/12/18 10:21:15;;;;;;;0.60;0.37;;;8.70;99.50;;;;;;4997276;28;20033;-74
2021/12/18 10:23:43;;;;;;;1.97;0.53;;;8.70;99.50;;;;;;4997040;28;20022;-74
2021/12/18 10:26:37;;;;;;;0.70;0.30;;;8.70;99.50;;;;;;5008111;28;20029;-73
2021/12/18 10:29:21;;;;;;;;;;;8.80;99.40;;;;;;5006368;28;20486;-77
2021/12/18 10:31:47;;;;;;;1.73;0.30;;;8.80;99.10;;;;;;5024052;28;19906;-77
2021/12/18 10:34:26;;;;;;;0.87;0.37;;;8.80;99.10;;;;;;5014718;28;20030;-76
2021/12/18 10:37:12;;;;;;;0.93;0.40;;;8.90;99.50;;;;;;4996891;28;20427;-77
2021/12/18 10:39:44;;;;;;;0.90;0.30;;;9.10;99.40;;;;;;4996803;28;20030;-76
2021/12/18 10:42:28;;;;;;;0.87;0.23;;;9.20;99.40;;;;;;4996992;28;20056;-77
2021/12/18 10:45:03;;;;;;;;;;;9.30;99.40;;;;;;4997048;28;20052;-77
2021/12/18 10:47:45;;;;;;;0.98;0.40;;;9.40;99.00;;;;;;5014411;28;19906;-76
2021/12/18 10:50:22;;;;;;;1.80;0.60;;;9.40;98.60;;;;;;5026563;28;20025;-76
2021/12/18 10:53:05;;;;;;;0.97;0.40;;;9.40;98.80;;;;;;5033851;28;20056;-75
2021/12/18 10:55:36;;;;;;;1.07;0.40;;;9.40;98.30;;;;;;5015805;28;20033;-76
2021/12/18 10:58:04;;;;;;;0.80;0.40;;;9.30;98.30;;;;;;5033346;28;20033;-76
2021/12/18 11:00:53;;;;;;;0.97;0.40;;;9.30;98.20;;;;;;5033606;28;20470;-77
2021/12/18 11:03:29;;;;;;;0.87;0.40;;;9.50;98.20;;;;;;5015784;28;20034;-76
2021/12/18 11:06:07;;;;;;;1.00;0.40;;;9.50;98.10;;;;;;5015675;28;20099;-76
2021/12/18 11:08:36;;;;;;;0.50;0.30;;;9.50;97.90;;;;;;5029228;28;20026;-76
2021/12/18 11:13:52;;;;;;;2.10;0.60;;;9.50;97.70;;;;;;5032262;28;20092;-77
2021/12/18 11:16:19;;;;;;;1.20;0.50;;;9.40;97.60;;;;;;5006591;28;20021;-77
2021/12/18 11:18:46;;;;;;;1.30;0.50;;;9.40;97.60;;;;;;5021121;28;20022;-76
2021/12/18 11:21:12;;;;;;;1.23;0.47;;;9.40;97.60;;;;;;5007582;28;20485;-76
2021/12/18 11:23:44;;;;;;;1.00;0.47;;;9.40;97.50;;;;;;5033227;28;20036;-76
2021/12/18 11:26:11;;;;;;;1.50;0.53;;;9.30;97.40;;;;;;5015147;28;20017;-77
2021/12/18 11:28:42;;;;;;;1.53;0.50;;;9.20;97.30;;;;;;5015217;28;20454;-77
2021/12/18 11:31:09;;;;;;;1.17;0.40;;;9.30;97.30;;;;;;5033076;28;20028;-76
2021/12/18 11:33:35;;;;;;;1.77;0.50;;;9.30;97.40;;;;;;5033261;28;20469;-76
2021/12/18 11:36:03;;;;;;;1.00;0.37;;;9.30;97.50;;;;;;5015552;28;20027;-76
2021/12/18 11:38:31;;;;;;;0.90;0.40;;;9.30;97.40;;;;;;5015433;28;20467;-76
2021/12/18 11:40:58;;;;;;;0.87;0.40;;;9.40;97.30;;;;;;5033166;28;20030;-76
2021/12/18 11:43:35;;;;;;;1.10;0.50;;;9.40;97.40;;;;;;5015643;28;20033;-76
2021/12/18 11:46:20;;;;;;;1.27;0.50;;;9.40;97.40;;;;;;5032533;28;20034;-76
2021/12/18 11:49:06;;;;;;;1.47;0.60;;;9.40;97.30;;;;;;5018020;28;20044;-76
2021/12/18 11:51:32;;;;;;;2.00;0.70;;;9.40;97.30;;;;;;5033218;28;20481;-76
2021/12/18 11:53:58;;;;;;;1.77;0.60;;;9.40;97.20;;;;;;4999062;28;20029;-76
2021/12/18 11:56:25;;;;;;;1.10;0.50;;;9.40;97.20;;;;;;5032343;28;20030;-76
2021/12/18 11:58:52;;;;;;;1.90;0.50;;;9.30;97.20;;;;;;5010213;28;20046;-77
2021/12/18 12:01:25;;;;;;;1.37;0.50;;;9.40;97.20;;;;;;4999351;28;20030;-76
2021/12/18 12:03:51;;;;;;;1.50;0.50;;;9.40;97.20;;;;;;5014678;28;20076;-77
2021/12/18 12:06:30;;;;;;;1.33;0.50;;;9.40;97.20;;;;;;5033028;28;20485;-77
2021/12/18 12:09:35;;;;;;;1.23;0.50;;;9.40;97.20;;;;;;5033299;28;20030;-77
2021/12/18 12:12:13;;;;;;;1.40;0.50;;;9.50;97.40;;;;;;5009473;28;20397;-77
2021/12/18 12:14:41;;;;;;;0.80;0.40;;;9.50;97.40;;;;;;5016222;28;20048;-77
2021/12/18 12:17:27;;;;;;;1.50;0.50;;;9.50;97.40;;;;;;5015331;28;20026;-77
2021/12/18 12:20:05;;;;;;;0.87;0.40;;;9.50;97.20;;;;;;5013561;28;20101;-77
2021/12/18 12:22:48;;;;;;;0.83;0.40;;;9.50;96.90;;;;;;5017558;28;20101;-77
2021/12/18 12:25:30;;;;;;;0.90;0.40;;;9.50;96.90;;;;;;5015228;28;20043;-78
2021/12/18 12:28:06;;;;;;;0.67;0.30;;;9.50;96.90;;;;;;5015435;28;20402;-77
2021/12/18 12:30:43;;;;;;;0.70;0.30;;;9.50;97.00;;;;;;5015258;28;20439;-77
2021/12/18 12:33:21;;;;;;;1.50;0.60;;;9.50;97.00;;;;;;5015462;28;20021;-77
2021/12/18 12:36:11;;;;;;;2.77;0.70;;;9.50;96.90;;;;;;5025513;28;20485;-77
2021/12/18 12:38:37;;;;;;;1.53;0.50;;;9.40;97.30;;;;;;5014869;28;20105;-77
2021/12/18 12:41:32;;;;;;;1.40;0.50;;;9.50;97.10;;;;;;5014308;28;20093;-77
2021/12/18 12:44:37;;;;;;;1.20;0.53;;;9.40;97.10;;;;;;5032728;28;20022;-77
2021/12/18 12:47:26;;;;;;;1.42;0.50;;;9.40;97.00;;;;;;5019498;28;20121;-78
2021/12/18 12:49:58;;;;;;;1.00;0.37;;;9.40;97.10;;;;;;5032493;28;20025;-78
2021/12/18 12:52:26;;;;;;;1.20;0.60;;;9.40;97.10;;;;;;5032462;28;20034;-78
2021/12/18 12:55:07;;;;;;;1.23;0.50;;;9.50;97.30;;;;;;5032492;28;20028;-77
2021/12/18 12:57:42;;;;;;;1.27;0.53;;;9.50;97.30;;;;;;5015341;28;20026;-77
2021/12/18 13:00:07;;;;;;;1.03;0.40;;;9.50;97.40;;;;;;5018406;28;20025;-77
2021/12/18 13:02:51;;;;;;;1.17;0.50;;;9.50;97.40;;;;;;5018148;28;20485;-77
2021/12/18 13:05:18;;;;;;;2.42;0.80;;;9.60;97.40;;;;;;5035819;28;20079;-77
2021/12/18 13:07:53;;;;;;;1.70;0.60;;;9.70;97.30;;;;;;5001975;28;20140;-77
2021/12/18 13:10:24;;;;;;;1.23;0.57;;;9.70;97.20;;;;;;5018026;28;20392;-77
2021/12/18 13:12:57;;;;;;;1.40;0.50;;;9.70;97.20;;;;;;5018034;28;20071;-77
2021/12/18 13:15:23;;;;;;;1.83;0.40;;;9.70;97.20;;;;;;5035891;28;20535;-77
2021/12/18 13:18:07;;;;;;;0.93;0.40;;;9.70;97.20;;;;;;5018163;28;20057;-77
2021/12/18 13:20:46;;;;;;;1.45;0.50;;;9.60;97.10;;;;;;5035744;28;20029;-77
2021/12/18 13:23:18;;;;;;;1.03;0.40;;;9.60;97.10;;;;;;5017958;28;20033;-77
2021/12/18 13:25:52;;;;;;;1.27;0.50;;;9.60;97.00;;;;;;5018958;28;20056;-77
2021/12/18 13:28:19;;;;;;;;;;;9.60;97.00;;;;;;5018042;28;20124;-77
2021/12/18 13:30:47;;;;;;;1.13;0.50;;;9.50;97.00;;;;;;5035382;28;19909;-77
2021/12/18 13:33:14;;;;;;;3.63;1.33;;;9.50;97.00;;;;;;5035323;28;20057;-77
2021/12/18 13:35:40;;;;;;;2.47;0.80;;;9.50;97.10;;;;;;5018186;28;20033;-77
2021/12/18 13:38:07;;;;;;;2.40;0.80;;;9.40;97.10;;;;;;5017835;28;20108;-77
2021/12/18 13:40:38;;;;;;;1.63;0.70;;;9.40;97.30;;;;;;5017556;28;20037;-76
2021/12/18 13:43:08;;;;;;;2.17;0.73;;;9.40;97.40;;;;;;5035149;28;20148;-77
2021/12/18 13:46:01;;;;;;;2.90;0.80;;;9.40;97.40;;;;;;5035368;28;20029;-77
2021/12/18 13:48:36;;;;;;;1.87;0.80;;;9.40;97.50;;;;;;5017452;28;20053;-77
2021/12/18 13:51:08;;;;;;;3.07;1.10;;;9.40;97.50;;;;;;5035008;28;20028;-77
2021/12/18 13:54:13;;;;;;;2.70;0.97;;;9.40;97.40;;;;;;5035075;28;20018;-77